Time;durP1;ratioP1;P1;durP2;ratioP2;P2;SDS_P1;SDS_P2;PMS_P1;PMS_P2;Temp;Humidity;BMP_temperature;BMP_pressure;BME280_temperature;BME280_humidity;BME280_pressure;Samples;Min_cycle;Max_cycle;Signal;HPM_P1;HPM_P2
2021/03/23 00:00:33;;;;;;;13.25;6.68;;;5.90;99.90;;;;;;5095146;28;20301;-84
2021/03/23 00:03:03;;;;;;;10.90;5.95;;;5.80;99.90;;;;;;5094318;28;20211;-83
2021/03/23 00:05:30;;;;;;;12.82;6.35;;;5.70;99.90;;;;;;5095187;28;20212;-82
2021/03/23 00:07:57;;;;;;;10.48;6.05;;;5.60;99.90;;;;;;5093722;28;20251;-83
2021/03/23 00:10:24;;;;;;;12.48;7.45;;;5.70;99.90;;;;;;5094998;28;20249;-83
2021/03/23 00:12:51;;;;;;;10.07;7.05;;;5.80;99.90;;;;;;5094374;28;20228;-83
2021/03/23 00:15:19;;;;;;;12.88;5.85;;;5.80;99.90;;;;;;5093829;28;20270;-84
2021/03/23 00:17:46;;;;;;;16.50;9.05;;;5.70;99.90;;;;;;5094269;28;20668;-84
2021/03/23 00:20:16;;;;;;;20.27;10.32;;;5.60;99.90;;;;;;5094864;28;20312;-84
2021/03/23 00:22:43;;;;;;;15.85;8.27;;;5.60;99.90;;;;;;5093342;28;20636;-84
2021/03/23 00:25:11;;;;;;;13.90;8.60;;;6.50;99.90;;;;;;5095242;28;20237;-84
2021/03/23 00:27:39;;;;;;;13.38;7.35;;;5.50;99.90;;;;;;5095338;28;20736;-83
2021/03/23 00:30:07;;;;;;;9.95;5.40;;;5.50;99.90;;;;;;5094730;28;20659;-84
2021/03/23 00:32:33;;;;;;;11.50;6.03;;;5.40;99.90;;;;;;5094683;28;20663;-83
2021/03/23 00:35:00;;;;;;;11.73;6.65;;;5.40;99.90;;;;;;5094533;28;20291;-83
2021/03/23 00:37:26;;;;;;;9.63;6.32;;;5.50;99.90;;;;;;5093199;28;20283;-83
2021/03/23 00:39:54;;;;;;;9.70;7.47;;;6.20;99.90;;;;;;5094521;28;20319;-85
2021/03/23 00:42:21;;;;;;;17.98;6.90;;;5.50;99.90;;;;;;5094543;28;20619;-83
2021/03/23 00:44:47;;;;;;;10.15;7.57;;;5.40;99.90;;;;;;5094227;28;20239;-83
2021/03/23 00:47:14;;;;;;;12.10;6.60;;;5.50;99.90;;;;;;5094595;28;20216;-84
2021/03/23 00:49:41;;;;;;;11.65;6.45;;;5.40;99.90;;;;;;5082980;28;20582;-83
2021/03/23 00:52:10;;;;;;;10.98;5.82;;;5.40;99.90;;;;;;5074110;28;20292;-82
2021/03/23 00:54:36;;;;;;;10.75;6.13;;;5.50;99.90;;;;;;5080355;28;20652;-83
2021/03/23 00:57:04;;;;;;;13.55;7.13;;;5.60;99.90;;;;;;5095637;28;20252;-83
2021/03/23 00:59:30;;;;;;;8.00;5.38;;;5.50;99.90;;;;;;5095840;28;20240;-83
2021/03/23 01:01:57;;;;;;;10.18;6.15;;;5.40;99.90;;;;;;5097425;28;20223;-83
2021/03/23 01:04:23;;;;;;;11.23;6.25;;;5.40;99.90;;;;;;5112904;28;20215;-84
2021/03/23 01:06:50;;;;;;;12.85;5.68;;;5.50;99.90;;;;;;5107505;28;20243;-83
2021/03/23 01:09:16;;;;;;;9.38;5.35;;;6.00;99.90;;;;;;5076547;28;20240;-83
2021/03/23 01:11:42;;;;;;;12.65;7.07;;;5.40;99.90;;;;;;5086402;28;20530;-83
2021/03/23 01:14:10;;;;;;;11.85;6.18;;;5.30;99.90;;;;;;5094842;28;20201;-83
2021/03/23 01:16:36;;;;;;;14.77;7.43;;;5.30;99.90;;;;;;5092992;28;20210;-83
2021/03/23 01:19:03;;;;;;;12.05;6.78;;;5.30;99.90;;;;;;5078453;28;20237;-84
2021/03/23 01:21:29;;;;;;;16.02;7.45;;;5.40;99.90;;;;;;5075719;28;20301;-84
2021/03/23 01:23:55;;;;;;;12.95;6.82;;;5.30;99.90;;;;;;5093469;28;20228;-84
2021/03/23 01:26:22;;;;;;;15.50;7.28;;;5.40;99.90;;;;;;5093607;28;20291;-84
2021/03/23 01:28:48;;;;;;;8.77;5.85;;;5.50;99.90;;;;;;5093594;28;20232;-83
2021/03/23 01:31:15;;;;;;;18.60;7.45;;;5.40;99.90;;;;;;5093238;28;20724;-84
2021/03/23 01:33:42;;;;;;;10.38;7.68;;;5.50;99.90;;;;;;5093114;28;20656;-84
2021/03/23 01:36:09;;;;;;;16.92;7.70;;;5.50;99.90;;;;;;5093512;28;20288;-85
2021/03/23 01:38:35;;;;;;;10.45;6.90;;;5.40;99.90;;;;;;5092098;28;20683;-84
2021/03/23 01:41:02;;;;;;;10.15;6.75;;;5.50;99.90;;;;;;5093349;28;20271;-83
2021/03/23 01:43:31;;;;;;;11.20;6.50;;;5.50;99.90;;;;;;5093464;28;20270;-84
2021/03/23 01:45:59;;;;;;;14.15;6.68;;;5.40;99.90;;;;;;5093220;28;20290;-84
2021/03/23 01:48:29;;;;;;;11.70;6.53;;;5.40;99.90;;;;;;5099244;28;20204;-84
2021/03/23 01:50:57;;;;;;;19.10;6.72;;;5.50;99.90;;;;;;5093836;28;20232;-84
2021/03/23 01:53:27;;;;;;;10.05;6.88;;;5.40;99.90;;;;;;5073696;28;20276;-84
2021/03/23 01:55:57;;;;;;;7.45;5.55;;;5.50;99.90;;;;;;5073035;28;20236;-84
2021/03/23 01:58:23;;;;;;;9.75;6.28;;;5.60;99.90;;;;;;5073318;28;20216;-84
2021/03/23 02:00:51;;;;;;;14.52;7.35;;;5.70;99.90;;;;;;5054258;28;20261;-83
2021/03/23 02:03:19;;;;;;;13.25;6.43;;;5.60;99.90;;;;;;5073685;28;20205;-84
2021/03/23 02:05:54;;;;;;;8.57;6.00;;;5.40;99.90;;;;;;5073277;28;20307;-85
2021/03/23 02:08:21;;;;;;;11.95;6.25;;;5.30;99.90;;;;;;5090841;28;20287;-85
2021/03/23 02:10:48;;;;;;;9.43;6.13;;;5.30;99.90;;;;;;5093498;28;20286;-84
2021/03/23 02:13:16;;;;;;;9.90;6.70;;;5.30;99.90;;;;;;5092860;28;20247;-84
2021/03/23 02:15:42;;;;;;;11.15;6.25;;;5.30;99.90;;;;;;5092169;28;20231;-84
2021/03/23 02:18:16;;;;;;;14.55;7.05;;;5.30;99.90;;;;;;5093333;28;20668;-83
2021/03/23 02:21:02;;;;;;;18.65;8.65;;;5.40;99.90;;;;;;5092134;28;20227;-84
2021/03/23 02:23:33;;;;;;;7.70;6.15;;;5.30;99.90;;;;;;5091640;28;20626;-83
2021/03/23 02:25:59;;;;;;;12.88;7.78;;;5.30;99.90;;;;;;5092960;28;20715;-84
2021/03/23 02:28:26;;;;;;;10.13;6.32;;;5.30;99.90;;;;;;5092944;28;20617;-84
2021/03/23 02:30:53;;;;;;;8.10;6.43;;;5.30;99.90;;;;;;5092700;28;20287;-84
2021/03/23 02:33:20;;;;;;;9.88;6.03;;;5.30;99.90;;;;;;5092801;28;20204;-83
2021/03/23 02:35:47;;;;;;;10.23;7.75;;;5.20;99.90;;;;;;5092904;28;20236;-84
2021/03/23 02:38:15;;;;;;;10.93;7.63;;;5.30;99.90;;;;;;5092230;28;20296;-84
2021/03/23 02:40:43;;;;;;;12.40;8.15;;;5.30;99.90;;;;;;5096955;28;20264;-84
2021/03/23 02:43:10;;;;;;;13.77;7.78;;;5.30;99.90;;;;;;5096819;28;20283;-83
2021/03/23 02:45:37;;;;;;;10.73;5.90;;;5.30;99.90;;;;;;5097305;28;20292;-83
2021/03/23 02:48:04;;;;;;;11.52;6.45;;;5.20;99.90;;;;;;5097145;28;20287;-83
2021/03/23 02:50:30;;;;;;;19.25;7.70;;;5.20;99.90;;;;;;5095805;28;20240;-84
2021/03/23 02:52:56;;;;;;;10.52;6.43;;;5.20;99.90;;;;;;5095226;28;20316;-84
2021/03/23 02:55:24;;;;;;;13.60;8.02;;;5.30;99.90;;;;;;5096890;28;20235;-84
2021/03/23 02:57:50;;;;;;;14.80;7.65;;;5.20;99.90;;;;;;5096886;28;20205;-84
2021/03/23 03:00:19;;;;;;;15.90;6.72;;;5.30;99.90;;;;;;5061655;28;20311;-83
2021/03/23 03:02:45;;;;;;;16.35;8.05;;;5.30;99.90;;;;;;5096959;28;20279;-84
2021/03/23 03:05:13;;;;;;;10.68;6.82;;;5.30;99.90;;;;;;5089739;28;20296;-83
2021/03/23 03:07:40;;;;;;;11.82;7.13;;;5.30;99.90;;;;;;5075321;28;20632;-84
2021/03/23 03:10:08;;;;;;;9.20;7.03;;;5.40;99.90;;;;;;5076452;28;20581;-85
2021/03/23 03:12:35;;;;;;;16.38;6.50;;;5.40;99.90;;;;;;5075913;28;20255;-85
2021/03/23 03:15:01;;;;;;;12.40;6.35;;;5.30;99.90;;;;;;5076975;28;20630;-85
2021/03/23 03:17:28;;;;;;;13.93;9.02;;;5.30;99.90;;;;;;5076194;28;20296;-83
2021/03/23 03:19:54;;;;;;;12.32;6.28;;;5.40;99.90;;;;;;5075488;28;20656;-83
2021/03/23 03:22:21;;;;;;;14.13;8.10;;;5.30;99.90;;;;;;5075806;28;20296;-83
2021/03/23 03:24:47;;;;;;;15.40;8.50;;;5.30;99.90;;;;;;5075304;28;20280;-84
2021/03/23 03:27:14;;;;;;;14.50;8.43;;;5.20;99.90;;;;;;5086352;28;20295;-83
2021/03/23 03:29:41;;;;;;;14.43;8.02;;;5.20;99.90;;;;;;5095953;28;20291;-83
2021/03/23 03:32:08;;;;;;;11.45;7.63;;;5.20;99.90;;;;;;5096308;28;20291;-84
2021/03/23 03:34:35;;;;;;;15.85;8.40;;;5.20;99.90;;;;;;5096178;28;20291;-83
2021/03/23 03:37:01;;;;;;;14.80;7.38;;;5.30;99.90;;;;;;5095860;28;20228;-83
2021/03/23 03:39:27;;;;;;;17.83;9.05;;;5.30;99.90;;;;;;5094736;28;20689;-83
2021/03/23 03:41:54;;;;;;;19.15;9.75;;;5.30;99.90;;;;;;5096446;28;20295;-84
2021/03/23 03:44:20;;;;;;;15.40;8.27;;;5.30;99.90;;;;;;5096467;28;20236;-84
2021/03/23 03:46:48;;;;;;;17.58;9.18;;;5.30;99.90;;;;;;5096507;28;20208;-83
2021/03/23 03:49:14;;;;;;;13.43;8.50;;;5.20;99.90;;;;;;5093897;28;20565;-83
2021/03/23 03:51:40;;;;;;;17.05;10.60;;;5.20;99.90;;;;;;5095999;28;20244;-83
2021/03/23 03:54:07;;;;;;;11.65;7.88;;;5.20;99.90;;;;;;5095141;28;20236;-83
2021/03/23 03:56:33;;;;;;;13.95;8.52;;;5.10;99.90;;;;;;5095931;28;20220;-84
2021/03/23 03:59:00;;;;;;;17.63;8.98;;;5.20;99.90;;;;;;5095884;28;20597;-83
2021/03/23 04:01:26;;;;;;;16.33;8.85;;;5.20;99.90;;;;;;5095881;28;20286;-84
2021/03/23 04:03:53;;;;;;;19.00;9.38;;;5.20;99.90;;;;;;5096938;28;20240;-83
2021/03/23 04:06:21;;;;;;;10.85;7.50;;;5.20;99.90;;;;;;5095698;28;20243;-83
2021/03/23 04:08:47;;;;;;;14.73;7.68;;;5.10;99.90;;;;;;5103300;28;20236;-83
2021/03/23 04:11:14;;;;;;;14.73;8.32;;;5.10;99.90;;;;;;5118665;28;20204;-83
2021/03/23 04:13:40;;;;;;;18.70;8.23;;;5.10;99.90;;;;;;5120241;28;20204;-81
2021/03/23 04:16:08;;;;;;;17.33;9.45;;;5.10;99.90;;;;;;5116274;28;20208;-84
2021/03/23 04:18:34;;;;;;;15.38;9.70;;;5.10;99.90;;;;;;5097049;28;20243;-83
2021/03/23 04:21:04;;;;;;;17.77;9.45;;;5.20;99.90;;;;;;5096497;28;20261;-83
2021/03/23 04:23:32;;;;;;;14.75;9.20;;;5.80;99.90;;;;;;5076367;28;20293;-83
2021/03/23 04:26:00;;;;;;;25.73;11.85;;;5.20;99.90;;;;;;5074890;28;20720;-83
2021/03/23 04:28:27;;;;;;;20.95;9.02;;;5.20;99.90;;;;;;5073812;28;20205;-83
2021/03/23 04:30:54;;;;;;;20.55;11.38;;;5.60;99.90;;;;;;5074727;28;20233;-83
2021/03/23 04:33:22;;;;;;;16.27;10.07;;;5.20;99.90;;;;;;5073435;28;20244;-84
2021/03/23 04:35:51;;;;;;;15.23;8.52;;;5.20;99.90;;;;;;5074699;28;20653;-83
2021/03/23 04:38:21;;;;;;;20.65;11.32;;;5.20;99.90;;;;;;5089529;28;20205;-84
2021/03/23 04:40:48;;;;;;;23.65;12.65;;;5.20;99.90;;;;;;5095033;28;20264;-84
2021/03/23 04:43:19;;;;;;;21.00;12.30;;;5.20;99.90;;;;;;5088861;28;20779;-84
2021/03/23 04:45:45;;;;;;;19.42;10.55;;;5.20;99.90;;;;;;5075301;28;20224;-84
2021/03/23 04:48:12;;;;;;;24.35;12.43;;;5.30;99.90;;;;;;5086111;28;20723;-83
2021/03/23 04:50:38;;;;;;;25.13;12.23;;;5.30;99.90;;;;;;5095111;28;20292;-84
2021/03/23 04:53:05;;;;;;;18.60;12.48;;;5.20;99.90;;;;;;5092773;28;20271;-83
2021/03/23 04:55:32;;;;;;;18.77;10.65;;;5.20;99.90;;;;;;5095338;28;20246;-83
2021/03/23 04:57:59;;;;;;;18.15;10.48;;;5.20;99.90;;;;;;5095291;28;20585;-84
2021/03/23 05:00:25;;;;;;;28.17;13.38;;;5.20;99.90;;;;;;5074636;28;20316;-84
2021/03/23 05:02:52;;;;;;;26.13;11.73;;;5.20;99.90;;;;;;5075544;28;20703;-84
2021/03/23 05:05:19;;;;;;;24.10;12.38;;;5.20;99.90;;;;;;5076884;28;20249;-84
2021/03/23 05:07:45;;;;;;;18.80;11.73;;;5.30;99.90;;;;;;5094126;28;20263;-84
2021/03/23 05:10:12;;;;;;;23.63;12.55;;;5.20;99.90;;;;;;5095109;28;20296;-84
2021/03/23 05:12:40;;;;;;;17.38;10.27;;;5.20;99.90;;;;;;5076953;28;20244;-83
2021/03/23 05:15:09;;;;;;;19.75;10.85;;;5.30;99.90;;;;;;5085901;28;20201;-83
2021/03/23 05:17:36;;;;;;;20.13;11.18;;;5.30;99.90;;;;;;5089959;28;20194;-82
2021/03/23 05:20:04;;;;;;;14.75;10.02;;;5.20;99.90;;;;;;5085307;28;20314;-84
2021/03/23 05:22:31;;;;;;;20.50;9.43;;;5.20;99.90;;;;;;5080296;28;20288;-83
2021/03/23 05:24:57;;;;;;;19.73;10.95;;;5.20;99.90;;;;;;5112569;28;20204;-83
2021/03/23 05:27:23;;;;;;;26.20;10.57;;;5.30;99.90;;;;;;5114059;28;20193;-83
2021/03/23 05:29:51;;;;;;;18.10;10.07;;;5.40;99.90;;;;;;5109732;28;20205;-84
2021/03/23 05:32:17;;;;;;;17.40;10.65;;;5.40;99.90;;;;;;5092514;28;20291;-83
2021/03/23 05:34:43;;;;;;;21.92;10.13;;;5.40;99.90;;;;;;5073395;28;20250;-83
2021/03/23 05:37:10;;;;;;;20.98;11.27;;;5.40;99.90;;;;;;5073400;28;20229;-83
2021/03/23 05:39:36;;;;;;;21.63;12.25;;;5.40;99.90;;;;;;5092146;28;20291;-83
2021/03/23 05:42:10;;;;;;;26.17;10.77;;;5.30;99.90;;;;;;5093201;28;20319;-83
2021/03/23 05:44:53;;;;;;;22.75;9.60;;;5.30;99.90;;;;;;5093449;28;20291;-83
2021/03/23 05:47:25;;;;;;;23.65;11.10;;;5.40;99.90;;;;;;5093577;28;20667;-84
2021/03/23 05:49:58;;;;;;;17.25;11.05;;;5.40;99.90;;;;;;5081629;28;20649;-84
2021/03/23 05:52:30;;;;;;;15.40;9.73;;;5.40;99.90;;;;;;5072238;28;20279;-84
2021/03/23 05:55:03;;;;;;;21.02;11.25;;;5.50;99.90;;;;;;5072791;28;20331;-84
2021/03/23 05:57:35;;;;;;;19.63;9.95;;;5.70;99.90;;;;;;5073341;28;20256;-84
2021/03/23 06:00:07;;;;;;;17.80;10.32;;;5.40;99.90;;;;;;5072968;28;20240;-85
2021/03/23 06:02:42;;;;;;;24.38;12.77;;;5.50;99.90;;;;;;5075376;28;20213;-83
2021/03/23 06:05:29;;;;;;;17.42;10.73;;;5.40;99.90;;;;;;5074223;28;20209;-84
2021/03/23 06:08:00;;;;;;;15.43;10.27;;;5.60;99.90;;;;;;5073423;28;20224;-84
2021/03/23 06:10:27;;;;;;;20.33;10.95;;;5.60;99.90;;;;;;5075319;28;20217;-85
2021/03/23 06:13:01;;;;;;;19.02;11.98;;;5.60;99.90;;;;;;5092230;28;20240;-86
2021/03/23 06:15:33;;;;;;;22.70;10.70;;;5.60;99.90;;;;;;5093033;28;20232;-85
2021/03/23 06:18:05;;;;;;;18.33;10.55;;;5.60;99.90;;;;;;5095122;28;20633;-86
2021/03/23 06:20:43;;;;;;;16.02;9.50;;;5.60;99.90;;;;;;5094102;28;20224;-85
2021/03/23 06:23:44;;;;;;;22.92;12.63;;;5.70;99.90;;;;;;5075888;28;20209;-85
2021/03/23 06:26:18;;;;;;;16.83;8.75;;;5.70;99.90;;;;;;5069885;28;20296;-85
2021/03/23 06:29:00;;;;;;;21.30;10.32;;;5.60;99.90;;;;;;5072076;28;20241;-85
2021/03/23 06:32:05;;;;;;;23.70;11.80;;;5.70;99.90;;;;;;5072822;28;20208;-85
2021/03/23 06:34:35;;;;;;;17.15;10.35;;;5.80;99.90;;;;;;5071825;28;20206;-85
2021/03/23 06:37:11;;;;;;;19.33;12.80;;;5.80;99.90;;;;;;5073480;28;20229;-85
2021/03/23 06:39:38;;;;;;;16.63;10.18;;;5.80;99.90;;;;;;5071873;28;20236;-84
2021/03/23 06:42:06;;;;;;;13.63;9.13;;;5.80;99.90;;;;;;5092542;28;20305;-84
2021/03/23 06:44:34;;;;;;;20.58;12.35;;;5.90;99.90;;;;;;5094299;28;20254;-84
2021/03/23 06:47:06;;;;;;;19.65;10.77;;;6.00;99.90;;;;;;5091706;28;20241;-86
2021/03/23 06:49:37;;;;;;;14.40;8.88;;;6.00;99.90;;;;;;5093259;28;20200;-84
2021/03/23 06:52:23;;;;;;;18.25;11.50;;;5.90;99.90;;;;;;5091241;28;20236;-84
2021/03/23 06:55:07;;;;;;;19.38;11.13;;;6.00;99.90;;;;;;5092675;28;20648;-84
2021/03/23 06:57:37;;;;;;;21.38;11.55;;;6.00;99.90;;;;;;5077696;28;20292;-84
2021/03/23 07:00:16;;;;;;;16.95;10.68;;;6.00;99.90;;;;;;5069300;28;20212;-84
2021/03/23 07:02:45;;;;;;;18.55;9.90;;;6.00;99.90;;;;;;5087416;28;20479;-84
2021/03/23 07:05:39;;;;;;;21.17;12.18;;;6.10;99.90;;;;;;5091845;28;20205;-84
2021/03/23 07:08:19;;;;;;;15.82;10.23;;;6.20;99.90;;;;;;5054975;28;20244;-84
2021/03/23 07:11:05;;;;;;;15.45;10.93;;;6.30;99.90;;;;;;5093281;28;20220;-86
2021/03/23 07:13:34;;;;;;;19.42;11.35;;;6.40;99.90;;;;;;5092199;28;20296;-85
2021/03/23 07:16:03;;;;;;;15.40;10.52;;;6.50;99.90;;;;;;5092790;28;20292;-85
2021/03/23 07:18:34;;;;;;;21.20;10.73;;;6.50;99.90;;;;;;5080300;28;20608;-85
2021/03/23 07:21:04;;;;;;;23.33;12.77;;;6.60;99.90;;;;;;5072303;28;20319;-86
2021/03/23 07:23:34;;;;;;;21.77;11.57;;;6.50;99.90;;;;;;5078774;28;20284;-84
2021/03/23 07:26:25;;;;;;;24.47;10.57;;;6.50;99.90;;;;;;5096335;28;20211;-85
2021/03/23 07:28:52;;;;;;;16.42;10.63;;;6.40;99.90;;;;;;5091919;28;20487;-84
2021/03/23 07:31:24;;;;;;;20.73;11.45;;;6.50;99.90;;;;;;5095986;28;20263;-85
2021/03/23 07:34:10;;;;;;;22.65;12.10;;;6.60;99.90;;;;;;5086914;28;20206;-85
2021/03/23 07:36:41;;;;;;;26.58;12.05;;;6.60;99.90;;;;;;5076394;28;20668;-85
2021/03/23 07:39:14;;;;;;;21.07;12.70;;;6.60;99.90;;;;;;5092278;28;20204;-84
2021/03/23 07:41:46;;;;;;;22.77;13.00;;;6.70;99.90;;;;;;5095943;28;20943;-85
2021/03/23 07:44:20;;;;;;;18.50;13.05;;;6.70;99.90;;;;;;5095649;28;20547;-85
2021/03/23 07:46:52;;;;;;;19.50;11.60;;;6.70;99.90;;;;;;5096519;28;20627;-85
2021/03/23 07:49:34;;;;;;;23.53;12.20;;;6.80;99.90;;;;;;5094420;28;20469;-85
2021/03/23 07:52:09;;;;;;;23.50;14.90;;;6.80;99.90;;;;;;5095745;28;20507;-84
2021/03/23 07:54:37;;;;;;;26.83;14.43;;;6.80;99.90;;;;;;5088117;28;20460;-84
2021/03/23 07:57:34;;;;;;;26.40;12.97;;;6.70;99.90;;;;;;5075435;28;20444;-83
2021/03/23 08:00:28;;;;;;;23.63;12.53;;;6.80;99.90;;;;;;5074728;28;20499;-84
2021/03/23 08:03:19;;;;;;;21.30;11.37;;;6.90;99.90;;;;;;5075268;28;20563;-85
2021/03/23 08:05:53;;;;;;;22.57;11.33;;;6.80;99.90;;;;;;5074373;28;20551;-85
2021/03/23 08:08:30;;;;;;;23.47;11.77;;;7.00;99.90;;;;;;5073843;28;20477;-86
2021/03/23 08:11:09;;;;;;;20.37;11.40;;;7.10;99.90;;;;;;5075084;28;20897;-86
2021/03/23 08:13:50;;;;;;;19.30;10.87;;;7.00;99.90;;;;;;5074854;28;20854;-88
2021/03/23 08:16:30;;;;;;;19.50;11.37;;;7.00;99.90;;;;;;5074718;28;20550;-87
2021/03/23 08:19:20;;;;;;;21.90;13.20;;;7.10;99.90;;;;;;5075700;28;20534;-84
2021/03/23 08:22:18;;;;;;;20.00;12.50;;;7.30;99.90;;;;;;5074303;28;21106;-87
2021/03/23 08:24:56;;;;;;;20.93;11.67;;;7.40;99.90;;;;;;5073655;28;20864;-92
2021/03/23 08:27:42;;;;;;;25.27;13.20;;;7.30;99.90;;;;;;5083421;28;20929;-89
2021/03/23 08:30:24;;;;;;;23.90;13.93;;;7.50;99.90;;;;;;5094560;28;21005;-90
2021/03/23 08:32:59;;;;;;;19.67;12.27;;;7.60;99.90;;;;;;5094316;28;20546;-86
2021/03/23 08:35:38;;;;;;;23.13;12.00;;;7.80;99.90;;;;;;5075829;28;20526;-89
2021/03/23 08:38:14;;;;;;;22.03;12.37;;;8.00;99.90;;;;;;5093500;28;20583;-91
2021/03/23 08:40:47;;;;;;;17.27;12.37;;;8.50;99.90;;;;;;5094874;28;20577;-87
2021/03/23 08:43:20;;;;;;;22.80;13.63;;;8.50;99.90;;;;;;5094036;28;20498;-86
2021/03/23 08:45:51;;;;;;;27.80;14.10;;;8.60;99.90;;;;;;5095178;28;20550;-87
2021/03/23 08:48:35;;;;;;;18.97;12.10;;;8.50;99.90;;;;;;5094297;28;21241;-85
2021/03/23 08:51:05;;;;;;;24.60;13.10;;;8.50;99.90;;;;;;5094928;28;20780;-85
2021/03/23 08:53:58;;;;;;;22.30;12.50;;;8.20;99.90;;;;;;5093310;28;20513;-86
2021/03/23 08:56:54;;;;;;;17.07;11.17;;;8.20;99.90;;;;;;5079935;28;20495;-87
2021/03/23 08:59:57;;;;;;;18.33;11.23;;;8.40;99.90;;;;;;5094716;28;20455;-88
2021/03/23 09:02:48;;;;;;;17.50;11.77;;;8.10;99.90;;;;;;5094451;28;20585;-87
2021/03/23 09:05:51;;;;;;;27.67;13.47;;;8.30;99.90;;;;;;5094462;28;20499;-86
2021/03/23 09:08:40;;;;;;;26.73;13.27;;;8.30;99.90;;;;;;5075551;28;20550;-85
2021/03/23 09:11:10;;;;;;;19.80;12.90;;;8.50;99.90;;;;;;5074062;28;20546;-86
2021/03/23 09:14:10;;;;;;;21.57;11.80;;;8.50;99.90;;;;;;5084303;28;21123;-88
2021/03/23 09:16:47;;;;;;;21.30;12.80;;;8.60;99.90;;;;;;5089786;28;20451;-86
2021/03/23 09:19:31;;;;;;;19.80;11.93;;;8.80;99.90;;;;;;5090397;28;20471;-88
2021/03/23 09:22:23;;;;;;;19.67;12.97;;;8.90;99.90;;;;;;5074204;28;20507;-87
2021/03/23 09:24:49;;;;;;;18.13;11.47;;;9.10;99.90;;;;;;5072403;28;20544;-87
2021/03/23 09:27:49;;;;;;;19.10;12.30;;;9.00;99.90;;;;;;5095245;28;20428;-88
2021/03/23 09:30:35;;;;;;;21.93;14.13;;;9.20;99.90;;;;;;5090933;28;20440;-86
2021/03/23 09:33:34;;;;;;;17.30;11.33;;;9.30;99.90;;;;;;5078532;28;20479;-90
2021/03/23 09:36:42;;;;;;;19.97;12.10;;;9.40;99.90;;;;;;5090113;28;20459;-86
2021/03/23 09:39:33;;;;;;;18.13;11.77;;;9.40;99.90;;;;;;5092664;28;20970;-84
2021/03/23 09:42:31;;;;;;;23.13;12.60;;;9.30;99.90;;;;;;5105476;28;20499;-87
2021/03/23 09:45:34;;;;;;;19.47;9.70;;;9.60;99.90;;;;;;5117382;28;20568;-87
2021/03/23 09:48:10;;;;;;;14.20;9.23;;;9.90;99.60;;;;;;5079406;28;21021;-88
2021/03/23 09:50:57;;;;;;;14.47;10.10;;;10.10;98.20;;;;;;5074631;28;20498;-79
2021/03/23 09:53:34;;;;;;;26.83;10.60;;;9.90;98.80;;;;;;5073944;28;20841;-88
2021/03/23 09:56:07;;;;;;;16.23;9.77;;;10.30;98.30;;;;;;5073883;28;20873;-85
2021/03/23 09:58:33;;;;;;;20.10;10.87;;;10.70;98.40;;;;;;5073697;28;20975;-86
2021/03/23 10:01:18;;;;;;;15.20;9.80;;;10.40;98.30;;;;;;5072994;28;20584;-86
2021/03/23 10:03:47;;;;;;;16.00;10.63;;;10.40;98.30;;;;;;5073516;28;20546;-86
2021/03/23 10:06:16;;;;;;;9.00;6.87;;;10.50;97.10;;;;;;5073648;28;20484;-92
2021/03/23 10:08:54;;;;;;;9.40;6.90;;;10.40;96.40;;;;;;5071011;28;20464;-84
2021/03/23 10:11:22;;;;;;;11.90;6.70;;;10.40;95.10;;;;;;5072841;28;20550;-85
2021/03/23 10:13:51;;;;;;;13.33;8.80;;;10.60;94.50;;;;;;5074000;28;20892;-90
2021/03/23 10:16:32;;;;;;;12.93;8.50;;;10.70;94.40;;;;;;5072769;28;20440;-87
2021/03/23 10:19:05;;;;;;;11.60;7.67;;;10.80;94.10;;;;;;5072596;28;20530;-88
2021/03/23 10:21:34;;;;;;;11.77;7.27;;;10.30;95.60;;;;;;5050945;28;20521;-86
2021/03/23 10:24:04;;;;;;;10.97;8.37;;;10.60;95.60;;;;;;5071137;28;20488;-85
2021/03/23 10:26:37;;;;;;;9.17;5.87;;;10.80;94.50;;;;;;5081110;28;20470;-87
2021/03/23 10:29:18;;;;;;;8.57;4.80;;;11.30;92.60;;;;;;5097276;28;20515;-83
2021/03/23 10:31:51;;;;;;;6.77;4.50;;;11.40;92.30;;;;;;5094181;28;20516;-84
2021/03/23 10:34:21;;;;;;;10.93;5.57;;;11.50;90.60;;;;;;5092318;28;20962;-84
2021/03/23 10:36:51;;;;;;;9.83;5.37;;;11.20;91.30;;;;;;5092460;28;20447;-82
2021/03/23 10:39:34;;;;;;;9.60;5.83;;;11.20;91.20;;;;;;5091880;28;20442;-91
2021/03/23 10:42:16;;;;;;;11.37;6.40;;;11.20;91.50;;;;;;5074129;28;20905;-87
2021/03/23 10:44:42;;;;;;;6.83;5.23;;;10.90;92.80;;;;;;5093093;28;20808;-91
2021/03/23 10:47:16;;;;;;;7.33;5.20;;;10.40;91.80;;;;;;5092653;28;20992;-85
2021/03/23 10:49:43;;;;;;;8.30;5.73;;;10.40;92.00;;;;;;5091461;28;20482;-84
2021/03/23 10:52:27;;;;;;;15.23;5.83;;;10.30;92.00;;;;;;5092821;28;20489;-87
2021/03/23 10:55:18;;;;;;;10.20;6.37;;;10.00;92.20;;;;;;5092396;28;20946;-87
2021/03/23 10:57:45;;;;;;;10.33;6.47;;;9.40;93.70;;;;;;5092798;28;20454;-84
2021/03/23 11:00:17;;;;;;;8.17;5.60;;;9.50;94.00;;;;;;5095657;28;20500;-86
2021/03/23 11:02:43;;;;;;;7.37;5.47;;;9.40;93.80;;;;;;5096739;28;20870;-85
2021/03/23 11:05:14;;;;;;;8.40;5.63;;;9.20;93.90;;;;;;5095803;28;20878;-83
2021/03/23 11:08:01;;;;;;;5.23;4.73;;;9.10;94.10;;;;;;5095413;28;20455;-87
2021/03/23 11:10:30;;;;;;;12.57;6.57;;;9.00;94.70;;;;;;5096865;28;20450;-86
2021/03/23 11:12:57;;;;;;;11.10;6.90;;;8.90;94.70;;;;;;5096365;28;20451;-90
2021/03/23 11:15:24;;;;;;;10.13;6.67;;;9.00;95.10;;;;;;5096557;28;20457;-85
2021/03/23 11:17:51;;;;;;;12.23;6.97;;;8.90;95.50;;;;;;5096298;28;20517;-90
2021/03/23 11:20:25;;;;;;;11.07;7.53;;;9.00;95.80;;;;;;5096829;28;20439;-86
2021/03/23 11:22:55;;;;;;;8.57;5.87;;;9.30;95.50;;;;;;5095908;28;20537;-85
2021/03/23 11:25:24;;;;;;;10.93;7.13;;;9.50;95.40;;;;;;5096150;28;20462;-84
2021/03/23 11:27:51;;;;;;;7.97;5.57;;;9.60;95.50;;;;;;5096171;28;20954;-87
2021/03/23 11:30:18;;;;;;;14.57;8.07;;;9.80;94.50;;;;;;5096425;28;20451;-90
2021/03/23 11:32:46;;;;;;;11.47;7.03;;;9.80;94.20;;;;;;5073718;28;20474;-86
2021/03/23 11:35:13;;;;;;;10.63;7.47;;;9.60;94.30;;;;;;5075605;28;20805;-86
2021/03/23 11:37:41;;;;;;;9.50;5.67;;;9.70;94.20;;;;;;5075387;28;20502;-84
2021/03/23 11:40:08;;;;;;;12.80;7.20;;;9.60;93.80;;;;;;5077265;28;21045;-86
2021/03/23 11:42:39;;;;;;;10.73;5.90;;;9.40;93.90;;;;;;5086367;28;20494;-83
2021/03/23 11:45:14;;;;;;;11.40;7.80;;;9.10;94.40;;;;;;5096116;28;20454;-87
2021/03/23 11:47:46;;;;;;;16.00;7.77;;;9.00;94.70;;;;;;5095809;28;20949;-82
2021/03/23 11:50:14;;;;;;;11.57;7.00;;;9.00;94.90;;;;;;5075581;28;20538;-80
2021/03/23 11:52:42;;;;;;;16.23;7.90;;;9.10;94.80;;;;;;5074052;28;20530;-84
2021/03/23 11:55:11;;;;;;;14.23;8.27;;;9.20;95.00;;;;;;5075590;28;20455;-84
2021/03/23 11:57:38;;;;;;;14.57;7.80;;;8.90;95.40;;;;;;5075638;28;20510;-83
2021/03/23 12:00:08;;;;;;;11.47;8.03;;;9.10;95.40;;;;;;5075200;28;20474;-84
2021/03/23 12:02:34;;;;;;;13.30;7.47;;;9.10;95.00;;;;;;5076497;28;20488;-85
2021/03/23 12:05:01;;;;;;;13.17;6.63;;;9.00;95.10;;;;;;5075421;28;20517;-84
2021/03/23 12:07:43;;;;;;;8.80;6.27;;;9.10;95.60;;;;;;5075392;28;20483;-85
2021/03/23 12:10:17;;;;;;;12.33;8.17;;;9.40;94.80;;;;;;5075147;28;20484;-85
2021/03/23 12:12:50;;;;;;;12.93;8.80;;;9.30;94.00;;;;;;5076593;28;20555;-83
2021/03/23 12:15:21;;;;;;;19.83;9.13;;;9.40;93.80;;;;;;5082435;28;20448;-84
2021/03/23 12:17:52;;;;;;;11.00;7.43;;;9.30;94.10;;;;;;5092952;28;20819;-82
2021/03/23 12:20:21;;;;;;;12.93;8.40;;;9.50;94.50;;;;;;5105446;28;20445;-87
2021/03/23 12:22:49;;;;;;;10.60;7.90;;;9.80;93.90;;;;;;5107270;28;20595;-84
2021/03/23 12:25:19;;;;;;;13.30;7.90;;;9.80;93.70;;;;;;5114565;28;20439;-85
2021/03/23 12:27:46;;;;;;;15.27;9.23;;;9.60;94.20;;;;;;5100489;28;20482;-86
2021/03/23 12:30:14;;;;;;;16.77;9.40;;;9.60;94.80;;;;;;5102370;28;20954;-86
2021/03/23 12:32:41;;;;;;;18.87;10.20;;;9.70;94.60;;;;;;5097100;28;20592;-87
2021/03/23 12:35:10;;;;;;;15.13;9.07;;;9.70;94.90;;;;;;5099699;28;20474;-86
2021/03/23 12:37:39;;;;;;;15.63;9.23;;;9.80;95.10;;;;;;5100952;28;21067;-86
2021/03/23 12:40:07;;;;;;;17.33;9.40;;;9.70;95.30;;;;;;5100099;28;20508;-84
2021/03/23 12:42:34;;;;;;;19.47;11.03;;;9.80;95.00;;;;;;5094610;28;20529;-84
2021/03/23 12:45:02;;;;;;;12.67;8.10;;;9.90;94.90;;;;;;5095852;28;20455;-87
2021/03/23 12:47:29;;;;;;;14.77;8.47;;;9.90;94.70;;;;;;5108445;28;20439;-88
2021/03/23 12:49:56;;;;;;;13.23;8.60;;;9.90;94.60;;;;;;5108196;28;20465;-86
2021/03/23 12:52:22;;;;;;;15.57;7.57;;;10.10;93.60;;;;;;5103705;28;20508;-85
2021/03/23 12:54:53;;;;;;;17.33;9.10;;;10.50;93.30;;;;;;5098014;28;20461;-88
2021/03/23 12:57:23;;;;;;;14.70;8.60;;;10.60;92.60;;;;;;5101325;28;20905;-82
2021/03/23 12:59:56;;;;;;;10.77;7.40;;;10.60;91.60;;;;;;5101848;28;20954;-86
2021/03/23 13:02:27;;;;;;;10.60;6.20;;;10.40;91.50;;;;;;5106751;28;20486;-88
2021/03/23 13:04:55;;;;;;;13.40;8.60;;;10.20;91.60;;;;;;5105858;28;20471;-82
2021/03/23 13:07:24;;;;;;;12.70;8.10;;;10.40;91.70;;;;;;5094747;28;20466;-84